Time;durP1;ratioP1;P1;durP2;ratioP2;P2;SDS_P1;SDS_P2;PMS_P1;PMS_P2;Temp;Humidity;BMP_temperature;BMP_pressure;BME280_temperature;BME280_humidity;BME280_pressure;Samples;Min_cycle;Max_cycle;Signal;HPM_P1;HPM_P2
2022/01/05 00:00:20;;;;;;;1.80;1.70;;;5.90;99.90;;;;;;5089561;28;20387;-81
2022/01/05 00:03:04;;;;;;;1.93;1.83;;;5.80;99.90;;;;;;5095153;28;20413;-80
2022/01/05 00:05:49;;;;;;;2.87;2.13;;;5.90;99.90;;;;;;5096800;28;20374;-81
2022/01/05 00:08:34;;;;;;;1.90;1.80;;;5.70;99.90;;;;;;5098270;28;20424;-81
2022/01/05 00:11:19;;;;;;;1.93;1.70;;;5.60;99.90;;;;;;5096977;28;20380;-82
2022/01/05 00:14:05;;;;;;;2.30;2.10;;;5.60;99.90;;;;;;5098209;28;20450;-81
2022/01/05 00:16:49;;;;;;;2.00;1.90;;;5.90;99.90;;;;;;5095317;28;20441;-81
2022/01/05 00:19:34;;;;;;;2.03;1.93;;;5.80;99.90;;;;;;5091695;28;20359;-81
2022/01/05 00:22:18;;;;;;;2.20;2.00;;;5.60;99.90;;;;;;5092057;28;20597;-81
2022/01/05 00:25:04;;;;;;;2.50;2.30;;;5.40;99.90;;;;;;5092806;28;20366;-81
2022/01/05 00:27:49;;;;;;;2.00;1.90;;;5.60;99.90;;;;;;5092185;28;20482;-80
2022/01/05 00:30:33;;;;;;;2.40;2.20;;;5.60;99.90;;;;;;5092739;28;20393;-80
2022/01/05 00:33:18;;;;;;;2.30;2.17;;;5.40;99.90;;;;;;5091498;28;20371;-80
2022/01/05 00:36:04;;;;;;;2.07;1.87;;;5.40;99.90;;;;;;5091692;28;20589;-81
2022/01/05 00:38:49;;;;;;;2.40;2.20;;;5.60;99.90;;;;;;5091266;28;20472;-81
2022/01/05 00:41:33;;;;;;;3.43;2.60;;;5.50;99.90;;;;;;5092295;28;20355;-81
2022/01/05 00:44:19;;;;;;;2.43;2.23;;;5.40;99.90;;;;;;5091729;28;20837;-81
2022/01/05 00:47:03;;;;;;;1.80;1.70;;;5.50;99.90;;;;;;5091170;28;20439;-80
2022/01/05 00:49:48;;;;;;;1.87;1.70;;;5.40;99.90;;;;;;5091379;28;20366;-81
2022/01/05 00:52:32;;;;;;;2.30;2.10;;;5.60;99.90;;;;;;5090864;28;20447;-81
2022/01/05 00:55:17;;;;;;;1.90;1.80;;;5.70;99.90;;;;;;5090837;28;20464;-80
2022/01/05 00:58:02;;;;;;;2.10;1.90;;;5.60;99.90;;;;;;5091430;28;20363;-80
2022/01/05 01:00:47;;;;;;;2.30;2.10;;;5.60;99.90;;;;;;5091677;28;20366;-80
2022/01/05 01:03:31;;;;;;;2.50;2.30;;;5.50;99.90;;;;;;5091265;28;20381;-81
2022/01/05 01:06:16;;;;;;;2.10;1.90;;;5.50;99.90;;;;;;5091653;28;20497;-80
2022/01/05 01:09:00;;;;;;;2.33;2.13;;;5.60;99.90;;;;;;5091266;28;20772;-81
2022/01/05 01:11:45;;;;;;;2.43;2.30;;;5.60;99.90;;;;;;5088512;28;20376;-80
2022/01/05 01:14:30;;;;;;;3.80;3.17;;;5.60;99.90;;;;;;5088576;28;20434;-81
2022/01/05 01:17:15;;;;;;;3.37;2.37;;;5.60;99.90;;;;;;5088140;28;20403;-80
2022/01/05 01:20:00;;;;;;;3.77;2.37;;;5.60;99.90;;;;;;5088470;28;20359;-80
2022/01/05 01:22:44;;;;;;;4.37;2.90;;;5.60;99.90;;;;;;5089123;28;20474;-80
2022/01/05 01:25:29;;;;;;;3.10;2.83;;;5.50;99.90;;;;;;5088943;28;20474;-80
2022/01/05 01:28:13;;;;;;;2.67;2.47;;;5.30;99.90;;;;;;5092828;28;20360;-80
2022/01/05 01:30:58;;;;;;;3.93;3.13;;;5.40;99.90;;;;;;5087443;28;20364;-79
2022/01/05 01:33:43;;;;;;;3.00;2.80;;;5.40;99.90;;;;;;5087713;28;20430;-79
2022/01/05 01:36:27;;;;;;;2.73;2.50;;;5.30;99.90;;;;;;5101180;28;20375;-80
2022/01/05 01:39:11;;;;;;;2.60;2.17;;;5.40;99.90;;;;;;5087133;28;20356;-80
2022/01/05 01:41:56;;;;;;;3.53;2.90;;;5.40;99.90;;;;;;5087456;28;20382;-80
2022/01/05 01:44:40;;;;;;;3.27;3.00;;;5.50;99.90;;;;;;5087701;28;20360;-80
2022/01/05 01:47:25;;;;;;;3.03;2.83;;;5.50;99.90;;;;;;5086915;28;20537;-79
2022/01/05 01:50:11;;;;;;;2.70;2.50;;;5.50;99.90;;;;;;5087246;28;20389;-80
2022/01/05 01:52:55;;;;;;;2.90;2.70;;;5.50;99.90;;;;;;5087386;28;20364;-80
2022/01/05 01:55:40;;;;;;;3.83;3.10;;;5.60;99.90;;;;;;5087200;28;20423;-79
2022/01/05 01:58:30;;;;;;;2.67;2.40;;;5.60;99.90;;;;;;5086765;28;20372;-80
2022/01/05 02:01:16;;;;;;;2.57;2.37;;;5.60;99.90;;;;;;5072610;28;20436;-80
2022/01/05 02:04:01;;;;;;;2.50;2.30;;;5.50;99.90;;;;;;5087179;28;20409;-80
2022/01/05 02:06:45;;;;;;;2.97;2.70;;;5.50;99.90;;;;;;5087717;28;20439;-79
2022/01/05 02:09:31;;;;;;;2.10;2.00;;;5.60;99.90;;;;;;5092842;28;20364;-80
2022/01/05 02:12:16;;;;;;;2.43;2.20;;;5.60;99.90;;;;;;5093023;28;20730;-79
2022/01/05 02:15:01;;;;;;;2.30;2.10;;;5.60;99.90;;;;;;5093288;28;21034;-80
2022/01/05 02:18:06;;;;;;;3.20;2.90;;;5.50;99.90;;;;;;5089178;28;20360;-80
2022/01/05 02:21:07;;;;;;;3.07;2.77;;;5.50;99.90;;;;;;5100479;28;20428;-80
2022/01/05 02:23:51;;;;;;;3.13;2.83;;;5.50;99.90;;;;;;5087138;28;20377;-80
2022/01/05 02:26:38;;;;;;;4.50;3.03;;;5.70;99.90;;;;;;5086908;28;20356;-80
2022/01/05 02:29:23;;;;;;;2.03;1.90;;;5.60;99.90;;;;;;5086814;28;20397;-80
2022/01/05 02:32:08;;;;;;;6.53;2.60;;;5.70;99.90;;;;;;5086897;28;20836;-80
2022/01/05 02:34:52;;;;;;;4.57;3.03;;;5.60;99.90;;;;;;5086461;28;20493;-80
2022/01/05 02:37:43;;;;;;;2.50;2.30;;;5.70;99.90;;;;;;5086165;28;20401;-80
2022/01/05 02:40:27;;;;;;;3.47;2.50;;;5.80;99.90;;;;;;5086355;28;20388;-80
2022/01/05 02:43:12;;;;;;;2.70;2.20;;;5.80;99.90;;;;;;5086012;28;20425;-80
2022/01/05 02:45:57;;;;;;;1.87;1.77;;;5.70;99.90;;;;;;5086489;28;20451;-80
2022/01/05 02:48:42;;;;;;;1.73;1.63;;;5.60;99.90;;;;;;5087869;28;20411;-80
2022/01/05 02:51:26;;;;;;;1.83;1.60;;;5.60;99.90;;;;;;5092659;28;20375;-80
2022/01/05 02:54:11;;;;;;;2.40;2.20;;;5.60;99.90;;;;;;5099749;28;20406;-80
2022/01/05 02:56:55;;;;;;;2.30;2.00;;;5.60;99.90;;;;;;5086680;28;20418;-80
2022/01/05 02:59:40;;;;;;;1.80;1.70;;;5.80;99.90;;;;;;5088381;28;20738;-80
2022/01/05 03:02:25;;;;;;;2.60;2.40;;;5.60;99.90;;;;;;5091598;28;20389;-79
2022/01/05 03:05:10;;;;;;;2.53;2.33;;;5.70;99.90;;;;;;5091952;28;20422;-80
2022/01/05 03:07:55;;;;;;;2.37;2.17;;;5.60;99.90;;;;;;5090193;28;20356;-81
2022/01/05 03:10:39;;;;;;;1.93;1.83;;;5.80;99.90;;;;;;5090385;28;20458;-80
2022/01/05 03:13:24;;;;;;;3.03;2.73;;;5.80;99.90;;;;;;5087340;28;20359;-80
2022/01/05 03:16:09;;;;;;;2.90;2.60;;;5.70;99.90;;;;;;5086171;28;20411;-80
2022/01/05 03:18:53;;;;;;;3.27;2.70;;;5.60;99.90;;;;;;5086946;28;20364;-80
2022/01/05 03:21:38;;;;;;;2.60;2.37;;;5.80;99.90;;;;;;5086357;28;20415;-80
2022/01/05 03:24:23;;;;;;;2.90;2.70;;;5.80;99.90;;;;;;5086461;28;20467;-80
2022/01/05 03:27:08;;;;;;;2.97;2.70;;;5.80;99.90;;;;;;5086733;28;20360;-80
2022/01/05 03:29:52;;;;;;;2.80;2.03;;;5.80;99.90;;;;;;5071335;28;20348;-81
2022/01/05 03:32:49;;;;;;;10.50;3.97;;;5.80;99.90;;;;;;5086073;28;20355;-80
2022/01/05 03:35:36;;;;;;;2.50;2.30;;;5.80;99.90;;;;;;5085328;28;20399;-80
2022/01/05 03:38:21;;;;;;;2.90;2.60;;;5.90;99.90;;;;;;5070809;28;20393;-80
2022/01/05 03:41:06;;;;;;;2.40;2.20;;;5.80;99.90;;;;;;5085269;28;20352;-81
2022/01/05 03:43:50;;;;;;;2.20;2.10;;;5.80;99.90;;;;;;5086739;28;20379;-80
2022/01/05 03:46:35;;;;;;;3.20;2.90;;;5.80;99.90;;;;;;5086282;28;20411;-81
2022/01/05 03:49:20;;;;;;;2.73;2.53;;;5.80;99.90;;;;;;5086177;28;20388;-81
2022/01/05 03:52:05;;;;;;;2.10;2.00;;;5.60;99.90;;;;;;5086821;28;20347;-81
2022/01/05 03:54:49;;;;;;;2.33;2.13;;;5.60;99.90;;;;;;5099997;28;20479;-81
2022/01/05 03:57:34;;;;;;;2.73;2.10;;;5.60;99.90;;;;;;5086791;28;20406;-81
2022/01/05 04:00:19;;;;;;;2.73;2.53;;;5.70;99.90;;;;;;5087079;28;20728;-81
2022/01/05 04:03:04;;;;;;;2.77;2.17;;;5.80;99.90;;;;;;5087448;28;20348;-81
2022/01/05 04:05:48;;;;;;;4.20;2.53;;;5.70;99.90;;;;;;5094023;28;20428;-79
2022/01/05 04:08:33;;;;;;;2.57;2.37;;;5.90;99.90;;;;;;5096964;28;20416;-78
2022/01/05 04:11:18;;;;;;;2.40;2.20;;;5.90;99.90;;;;;;5096842;28;20383;-78
2022/01/05 04:14:04;;;;;;;3.40;3.10;;;5.90;99.90;;;;;;5091948;28;20704;-80
2022/01/05 04:16:49;;;;;;;3.20;2.90;;;5.80;99.90;;;;;;5085728;28;20396;-80
2022/01/05 04:19:34;;;;;;;5.33;3.07;;;6.00;99.90;;;;;;5086355;28;20459;-80
2022/01/05 04:22:19;;;;;;;3.07;2.67;;;6.10;99.90;;;;;;5084925;28;20399;-80
2022/01/05 04:25:05;;;;;;;3.37;3.07;;;6.10;99.90;;;;;;5085548;28;20395;-80
2022/01/05 04:27:51;;;;;;;2.80;2.60;;;6.10;99.90;;;;;;5085335;28;20486;-81
2022/01/05 04:30:36;;;;;;;2.50;2.30;;;6.20;99.90;;;;;;5086153;28;20352;-80
2022/01/05 04:33:21;;;;;;;3.27;2.63;;;6.30;99.90;;;;;;5086336;28;20513;-81
2022/01/05 04:36:07;;;;;;;4.03;3.20;;;6.20;99.90;;;;;;5085643;28;20427;-81
2022/01/05 04:38:52;;;;;;;2.57;2.37;;;6.20;99.90;;;;;;5085569;28;20364;-81
2022/01/05 04:41:37;;;;;;;6.67;3.87;;;6.10;99.90;;;;;;5099362;28;20401;-80
2022/01/05 04:44:21;;;;;;;3.13;2.53;;;6.20;99.90;;;;;;5091329;28;20397;-80
2022/01/05 04:47:07;;;;;;;2.60;2.40;;;6.20;99.90;;;;;;5111907;28;20512;-80
2022/01/05 04:49:52;;;;;;;2.70;2.50;;;6.20;99.90;;;;;;5121484;28;20402;-80
2022/01/05 04:52:38;;;;;;;2.70;2.50;;;6.30;99.90;;;;;;5121871;28;20396;-79
2022/01/05 04:55:22;;;;;;;3.73;2.57;;;6.30;99.90;;;;;;5113506;28;21032;-80
2022/01/05 04:58:07;;;;;;;2.60;2.40;;;6.30;99.90;;;;;;5109025;28;20388;-80
2022/01/05 05:00:52;;;;;;;2.30;2.20;;;6.50;99.90;;;;;;5108877;28;20420;-80
2022/01/05 05:03:37;;;;;;;2.40;2.20;;;6.40;99.90;;;;;;5108450;28;20444;-80
2022/01/05 05:06:22;;;;;;;2.53;2.40;;;6.30;99.90;;;;;;5108728;28;20362;-79
2022/01/05 05:09:09;;;;;;;3.50;2.33;;;6.30;99.90;;;;;;5109702;28;20408;-80
2022/01/05 05:11:53;;;;;;;2.40;2.10;;;6.40;99.90;;;;;;5108944;28;20381;-81
2022/01/05 05:14:38;;;;;;;3.87;3.47;;;6.40;99.90;;;;;;5108466;28;20463;-81
2022/01/05 05:17:23;;;;;;;2.63;2.43;;;6.30;99.90;;;;;;5109000;28;20450;-80
2022/01/05 05:20:08;;;;;;;2.07;1.97;;;6.40;99.90;;;;;;5108227;28;20526;-80
2022/01/05 05:22:53;;;;;;;1.60;1.50;;;6.50;99.90;;;;;;5108113;28;20423;-80
2022/01/05 05:25:38;;;;;;;2.63;2.10;;;6.50;99.90;;;;;;5108329;28;20408;-81
2022/01/05 05:28:22;;;;;;;2.30;2.10;;;6.60;99.90;;;;;;5108185;28;20408;-81
2022/01/05 05:31:07;;;;;;;2.13;1.80;;;6.50;99.90;;;;;;5107180;28;20409;-81
2022/01/05 05:33:52;;;;;;;2.10;1.90;;;6.40;99.90;;;;;;5108002;28;20392;-81
2022/01/05 05:36:37;;;;;;;1.60;1.47;;;6.50;99.90;;;;;;5065419;28;20414;-80
2022/01/05 05:39:22;;;;;;;1.83;1.73;;;6.40;99.90;;;;;;5064375;28;20365;-80
2022/01/05 05:42:07;;;;;;;1.50;1.40;;;6.30;99.90;;;;;;5065180;28;20474;-80
2022/01/05 05:44:52;;;;;;;1.30;1.20;;;6.30;99.90;;;;;;5064811;28;20440;-80
2022/01/05 05:47:36;;;;;;;1.60;1.50;;;6.30;99.90;;;;;;5065063;28;20459;-80
2022/01/05 05:50:22;;;;;;;1.30;1.20;;;6.20;99.90;;;;;;5065366;28;20906;-80
2022/01/05 05:53:07;;;;;;;1.30;1.20;;;6.40;99.90;;;;;;5069133;28;20852;-80
2022/01/05 05:55:51;;;;;;;1.20;1.10;;;6.60;99.90;;;;;;5069083;28;20526;-80
2022/01/05 05:58:36;;;;;;;1.00;1.00;;;6.60;99.90;;;;;;5068086;28;20945;-80
2022/01/05 06:01:20;;;;;;;1.43;1.33;;;6.60;99.90;;;;;;5065108;28;20496;-80
2022/01/05 06:04:05;;;;;;;3.00;1.10;;;6.80;99.90;;;;;;5064340;28;20353;-79
2022/01/05 06:06:49;;;;;;;1.20;1.10;;;6.40;99.90;;;;;;5070586;28;20467;-80
2022/01/05 06:09:34;;;;;;;2.03;1.30;;;5.80;99.90;;;;;;5086215;28;20410;-80
2022/01/05 06:12:19;;;;;;;1.20;1.10;;;5.50;99.90;;;;;;5085721;28;20371;-80
2022/01/05 06:15:04;;;;;;;3.90;1.20;;;5.20;99.90;;;;;;5085865;28;20518;-80
2022/01/05 06:17:49;;;;;;;4.27;1.20;;;5.20;99.90;;;;;;5086001;28;20359;-80
2022/01/05 06:20:33;;;;;;;1.10;1.00;;;5.20;99.90;;;;;;5074883;28;20876;-79
2022/01/05 06:23:18;;;;;;;1.30;1.20;;;5.20;99.90;;;;;;5085753;28;20429;-79
2022/01/05 06:26:03;;;;;;;2.20;1.13;;;5.10;99.90;;;;;;5085996;28;20432;-79
2022/01/05 06:28:48;;;;;;;1.47;1.30;;;5.10;99.90;;;;;;5106166;28;20367;-79
2022/01/05 06:31:32;;;;;;;1.50;1.40;;;5.00;99.90;;;;;;5090878;28;20715;-79
2022/01/05 06:34:17;;;;;;;1.50;1.30;;;5.10;99.90;;;;;;5106026;28;20385;-79
2022/01/05 06:37:02;;;;;;;1.33;1.23;;;5.00;99.90;;;;;;5105371;28;20363;-79
2022/01/05 06:39:46;;;;;;;1.27;1.17;;;5.00;99.90;;;;;;5105886;28;20454;-79
2022/01/05 06:42:30;;;;;;;5.50;1.23;;;4.90;99.90;;;;;;5106451;28;20403;-79
2022/01/05 06:45:17;;;;;;;1.33;1.23;;;5.00;99.90;;;;;;5106503;28;20388;-80
2022/01/05 06:48:01;;;;;;;2.33;1.27;;;5.00;99.90;;;;;;5106256;28;20495;-79
2022/01/05 06:50:46;;;;;;;1.23;1.10;;;5.00;99.90;;;;;;5106947;28;20375;-80
2022/01/05 06:53:30;;;;;;;1.40;1.20;;;5.00;99.90;;;;;;5106793;28;20362;-79
2022/01/05 06:56:15;;;;;;;1.50;1.40;;;5.00;99.90;;;;;;5106079;28;20428;-78
2022/01/05 06:59:00;;;;;;;1.40;1.30;;;5.00;99.90;;;;;;5105342;28;20373;-80
2022/01/05 07:01:44;;;;;;;1.30;1.20;;;5.00;99.90;;;;;;5105084;28;20445;-79
2022/01/05 07:04:29;;;;;;;1.00;1.00;;;5.00;99.90;;;;;;5106251;28;20380;-79
2022/01/05 07:07:13;;;;;;;1.17;1.10;;;5.10;99.90;;;;;;5106265;28;20359;-79
2022/01/05 07:09:58;;;;;;;3.97;2.37;;;5.00;99.90;;;;;;5105023;28;20377;-80
2022/01/05 07:12:43;;;;;;;2.50;1.60;;;5.00;99.90;;;;;;5089708;28;20361;-79
2022/01/05 07:15:28;;;;;;;1.60;1.40;;;5.10;99.90;;;;;;5105102;28;20418;-80
2022/01/05 07:18:13;;;;;;;4.70;3.30;;;5.00;99.90;;;;;;5105579;28;20366;-79
2022/01/05 07:20:58;;;;;;;2.47;1.70;;;5.10;99.90;;;;;;5101945;28;20863;-79
2022/01/05 07:23:42;;;;;;;1.60;1.23;;;5.10;99.90;;;;;;5093339;28;20387;-79
2022/01/05 07:26:28;;;;;;;1.10;1.03;;;5.10;99.90;;;;;;5101586;28;20431;-80
2022/01/05 07:29:14;;;;;;;1.00;1.00;;;5.20;99.90;;;;;;5085145;28;20401;-79
2022/01/05 07:31:58;;;;;;;1.30;1.20;;;5.20;99.90;;;;;;5084610;28;20432;-80
2022/01/05 07:34:43;;;;;;;1.67;1.57;;;5.20;99.90;;;;;;5069488;28;20489;-79
2022/01/05 07:37:27;;;;;;;1.10;1.10;;;5.10;99.90;;;;;;5069343;28;20399;-81
2022/01/05 07:40:12;;;;;;;0.97;0.97;;;5.10;99.90;;;;;;5069067;28;20455;-81
2022/01/05 07:42:57;;;;;;;1.40;1.30;;;5.10;99.90;;;;;;5098658;28;20402;-80
2022/01/05 07:45:41;;;;;;;1.10;1.00;;;5.10;99.90;;;;;;5104801;28;20371;-81
2022/01/05 07:48:26;;;;;;;1.50;1.37;;;5.10;99.90;;;;;;5103892;28;21211;-80
2022/01/05 07:51:11;;;;;;;1.03;1.00;;;5.20;99.90;;;;;;5103542;28;20415;-80
2022/01/05 07:53:55;;;;;;;3.67;1.30;;;5.10;99.90;;;;;;5099912;28;20406;-80
2022/01/05 07:56:40;;;;;;;1.50;1.40;;;5.00;99.90;;;;;;5104992;28;20461;-81
2022/01/05 07:59:25;;;;;;;1.67;1.57;;;5.00;99.90;;;;;;5104401;28;20376;-81
2022/01/05 08:02:10;;;;;;;2.93;1.90;;;5.00;99.90;;;;;;5104559;28;20676;-81
2022/01/05 08:04:54;;;;;;;3.77;1.73;;;5.00;99.90;;;;;;5104811;28;20346;-80
2022/01/05 08:07:39;;;;;;;8.57;1.30;;;5.00;99.90;;;;;;5104404;28;20366;-81
2022/01/05 08:10:24;;;;;;;4.70;1.83;;;4.90;99.90;;;;;;5103695;28;20431;-81
2022/01/05 08:13:09;;;;;;;1.60;1.50;;;5.00;99.90;;;;;;5103791;28;20384;-81
2022/01/05 08:15:54;;;;;;;2.13;1.57;;;4.90;99.90;;;;;;5103678;28;20444;-81
2022/01/05 08:18:39;;;;;;;2.50;1.67;;;5.00;99.90;;;;;;5104082;28;20409;-80
2022/01/05 08:21:23;;;;;;;7.33;2.00;;;4.90;99.90;;;;;;5091645;28;20395;-81
2022/01/05 08:24:08;;;;;;;2.83;1.87;;;4.90;99.90;;;;;;5108249;28;20447;-79
2022/01/05 08:26:53;;;;;;;16.53;2.87;;;4.90;99.90;;;;;;5093236;28;20401;-81
2022/01/05 08:29:38;;;;;;;1.33;1.23;;;4.80;99.90;;;;;;5108929;28;20447;-80
2022/01/05 08:32:22;;;;;;;2.20;2.00;;;4.80;99.90;;;;;;5108709;28;20405;-80
2022/01/05 08:35:07;;;;;;;2.00;1.80;;;4.90;99.90;;;;;;5108992;28;20455;-81
2022/01/05 08:37:53;;;;;;;2.57;2.37;;;4.80;99.90;;;;;;5108923;28;20380;-80
2022/01/05 08:40:40;;;;;;;5.73;1.80;;;4.80;99.90;;;;;;5112867;28;20391;-80
2022/01/05 08:43:25;;;;;;;2.87;2.53;;;4.80;99.90;;;;;;5090444;28;20421;-79
2022/01/05 08:46:10;;;;;;;5.27;2.70;;;4.80;99.90;;;;;;5111631;28;20384;-79
2022/01/05 08:48:54;;;;;;;2.07;1.50;;;5.00;99.90;;;;;;5110990;28;20377;-79
2022/01/05 08:51:39;;;;;;;2.00;1.83;;;4.90;99.90;;;;;;5090045;28;20366;-79
2022/01/05 08:54:24;;;;;;;3.93;2.47;;;4.90;99.90;;;;;;5106488;28;20402;-79
2022/01/05 08:57:08;;;;;;;2.17;1.87;;;4.90;99.90;;;;;;5108205;28;20398;-79
2022/01/05 08:59:53;;;;;;;6.00;2.50;;;4.80;99.90;;;;;;5107443;28;20419;-79
2022/01/05 09:02:38;;;;;;;2.50;2.30;;;4.80;99.90;;;;;;5107337;28;20402;-79
2022/01/05 09:05:23;;;;;;;4.13;2.40;;;4.80;99.90;;;;;;5092283;28;20367;-79
2022/01/05 09:08:07;;;;;;;4.33;2.57;;;4.70;99.90;;;;;;5108328;28;20407;-79
2022/01/05 09:10:51;;;;;;;2.00;1.77;;;4.70;99.90;;;;;;5108788;28;20412;-79
2022/01/05 09:13:36;;;;;;;2.83;2.63;;;4.70;99.90;;;;;;5088574;28;20404;-79
2022/01/05 09:16:21;;;;;;;1.50;1.40;;;4.50;99.90;;;;;;5088426;28;20438;-79
2022/01/05 09:19:06;;;;;;;2.20;2.00;;;4.40;99.90;;;;;;5087978;28;20587;-78
2022/01/05 09:21:50;;;;;;;3.17;2.57;;;4.30;99.90;;;;;;5069128;28;20443;-79
2022/01/05 09:24:36;;;;;;;2.80;2.43;;;4.50;99.90;;;;;;5079605;28;20415;-78
2022/01/05 09:27:21;;;;;;;4.40;2.57;;;4.50;99.90;;;;;;5115250;28;20417;-80
2022/01/05 09:30:10;;;;;;;1.85;1.75;;;4.90;99.90;;;;;;5096306;28;20286;-79
2022/01/05 09:32:54;;;;;;;3.23;2.43;;;5.00;99.90;;;;;;5109759;28;20505;-80
2022/01/05 09:35:39;;;;;;;2.67;2.40;;;7.70;99.90;;;;;;5103975;28;20468;-79
2022/01/05 09:38:36;;;;;;;5.20;2.23;;;8.20;99.90;;;;;;5127589;28;20480;-79
2022/01/05 09:44:30;;;;;;;1.73;1.63;;;7.30;99.90;;;;;;5114533;28;20415;-80
2022/01/05 09:47:37;;;;;;;1.50;1.40;;;7.10;99.90;;;;;;5095805;28;20447;-80
2022/01/05 09:50:23;;;;;;;2.70;2.13;;;6.80;99.90;;;;;;5086476;28;20464;-81
2022/01/05 09:53:08;;;;;;;3.73;2.00;;;6.50;99.90;;;;;;5091605;28;20410;-81
2022/01/05 09:55:54;;;;;;;4.50;1.97;;;6.10;99.90;;;;;;5091871;28;20438;-80
2022/01/05 09:58:42;;;;;;;7.33;2.30;;;5.80;99.90;;;;;;5096468;28;20402;-80
2022/01/05 10:01:29;;;;;;;7.93;2.17;;;6.50;99.90;;;;;;5094728;28;20410;-79
2022/01/05 10:04:14;;;;;;;1.93;1.83;;;6.20;99.90;;;;;;5097112;28;20411;-79
2022/01/05 10:06:59;;;;;;;4.27;2.40;;;6.90;99.90;;;;;;5117920;28;20467;-79
2022/01/05 10:09:45;;;;;;;9.73;1.97;;;6.90;99.90;;;;;;5114754;28;20471;-80
2022/01/05 10:12:30;;;;;;;6.40;1.87;;;7.20;99.90;;;;;;5097887;28;20390;-79
2022/01/05 10:15:16;;;;;;;3.83;2.10;;;7.00;99.90;;;;;;5097812;28;20448;-81
2022/01/05 10:18:16;;;;;;;3.33;1.60;;;6.40;99.90;;;;;;5097702;28;20450;-80
2022/01/05 10:21:02;;;;;;;8.10;1.90;;;6.20;99.90;;;;;;5093554;28;20500;-80
2022/01/05 10:23:51;;;;;;;2.23;1.90;;;6.10;99.90;;;;;;5095971;28;20456;-79
2022/01/05 10:26:39;;;;;;;3.03;1.90;;;5.60;99.90;;;;;;5074433;28;20516;-80
2022/01/05 10:29:24;;;;;;;3.43;1.87;;;5.70;99.90;;;;;;5094083;28;20532;-80
2022/01/05 10:32:08;;;;;;;2.07;1.60;;;6.00;99.90;;;;;;5094341;28;20476;-80
2022/01/05 10:35:16;;;;;;;1.40;1.30;;;5.40;99.90;;;;;;5096296;28;20446;-80
2022/01/05 10:38:04;;;;;;;2.53;1.90;;;5.40;99.90;;;;;;5094837;28;20937;-81
2022/01/05 10:40:48;;;;;;;1.50;1.40;;;5.50;99.90;;;;;;5100402;28;20464;-80
2022/01/05 10:43:33;;;;;;;6.07;3.73;;;5.60;99.90;;;;;;5065857;28;20379;-80
2022/01/05 10:46:33;;;;;;;1.50;1.40;;;6.10;99.90;;;;;;5058589;28;20522;-80
2022/01/05 10:49:32;;;;;;;2.30;1.70;;;7.20;99.90;;;;;;5052974;28;20412;-80
2022/01/05 10:52:26;;;;;;;1.37;1.27;;;7.90;99.90;;;;;;5060679;28;20505;-81
2022/01/05 10:55:14;;;;;;;4.40;2.10;;;8.90;99.90;;;;;;5045578;28;20548;-81
2022/01/05 10:58:10;;;;;;;6.57;2.40;;;9.40;99.90;;;;;;5049299;28;20808;-80
2022/01/05 11:00:56;;;;;;;3.30;1.97;;;9.40;99.90;;;;;;5055286;28;20404;-80
2022/01/05 11:03:41;;;;;;;2.70;2.07;;;8.80;99.90;;;;;;5050722;28;20516;-80
2022/01/05 11:06:26;;;;;;;2.93;2.33;;;8.50;99.90;;;;;;5051667;28;20474;-80
2022/01/05 11:09:11;;;;;;;4.00;2.00;;;8.80;99.90;;;;;;5039559;28;20492;-80
2022/01/05 11:11:57;;;;;;;2.00;1.90;;;7.70;99.90;;;;;;5028730;28;20441;-80
2022/01/05 11:14:41;;;;;;;4.00;2.77;;;7.30;99.90;;;;;;5052807;28;20543;-80
2022/01/05 11:17:26;;;;;;;2.23;1.60;;;7.30;99.90;;;;;;5070168;28;20472;-79
2022/01/05 11:20:10;;;;;;;1.70;1.60;;;6.40;99.90;;;;;;5087725;28;20533;-80
2022/01/05 11:22:55;;;;;;;2.07;1.97;;;5.70;99.90;;;;;;5096794;28;20779;-80
2022/01/05 11:25:42;;;;;;;4.37;2.47;;;6.20;99.90;;;;;;5068073;28;20817;-80
2022/01/05 11:28:28;;;;;;;9.23;2.50;;;7.00;99.90;;;;;;5094252;28;20474;-80
2022/01/05 11:31:12;;;;;;;10.57;4.30;;;6.80;99.90;;;;;;5095496;28;20464;-80
2022/01/05 11:33:58;;;;;;;2.60;1.83;;;6.60;99.90;;;;;;5095028;28;20410;-79
2022/01/05 11:36:43;;;;;;;2.93;1.40;;;6.90;99.90;;;;;;5097580;28;20418;-80
2022/01/05 11:39:31;;;;;;;2.40;1.80;;;6.90;99.90;;;;;;5092754;28;20774;-80
2022/01/05 11:42:23;;;;;;;1.57;1.23;;;6.20;99.90;;;;;;5074987;28;20432;-79
2022/01/05 11:45:08;;;;;;;12.07;3.17;;;5.80;99.90;;;;;;5083784;28;20493;-80
2022/01/05 11:48:12;;;;;;;4.17;1.80;;;5.50;99.90;;;;;;5097045;28;20433;-80
2022/01/05 11:51:00;;;;;;;3.83;1.80;;;5.00;99.90;;;;;;5090804;28;20435;-79
2022/01/05 11:53:46;;;;;;;2.23;2.03;;;5.00;99.90;;;;;;5101184;28;20410;-79
2022/01/05 11:56:41;;;;;;;4.00;1.90;;;5.00;99.90;;;;;;5096706;28;20465;-79
2022/01/05 11:59:34;;;;;;;4.10;1.77;;;5.10;99.90;;;;;;5074773;28;20448;-79
2022/01/05 12:02:19;;;;;;;3.87;1.93;;;4.90;99.90;;;;;;5095321;28;20402;-80
2022/01/05 12:05:04;;;;;;;2.93;1.37;;;4.90;99.90;;;;;;5096398;28;20404;-80
2022/01/05 12:07:51;;;;;;;3.17;1.80;;;4.90;99.90;;;;;;5082741;28;20408;-80
2022/01/05 12:10:52;;;;;;;2.07;1.80;;;4.90;99.90;;;;;;5099212;28;20471;-80
2022/01/05 12:13:37;;;;;;;1.20;1.10;;;4.80;99.90;;;;;;5099263;28;20932;-80
2022/01/05 12:16:22;;;;;;;4.13;2.23;;;4.80;99.90;;;;;;5100747;28;20467;-80
2022/01/05 12:19:12;;;;;;;1.93;1.73;;;4.60;99.90;;;;;;5093970;28;20401;-80
2022/01/05 12:22:01;;;;;;;1.40;1.30;;;4.20;99.90;;;;;;5092327;28;20422;-81
2022/01/05 12:25:10;;;;;;;5.47;2.10;;;4.40;99.90;;;;;;5095352;28;20456;-80
2022/01/05 12:27:58;;;;;;;3.87;2.03;;;4.40;99.90;;;;;;5103027;28;20390;-80
2022/01/05 12:30:42;;;;;;;3.10;2.10;;;4.60;99.90;;;;;;5083180;28;20483;-82
2022/01/05 12:33:49;;;;;;;2.23;2.03;;;4.70;99.90;;;;;;5094620;28;20480;-81
2022/01/05 12:36:36;;;;;;;4.73;1.80;;;4.80;99.90;;;;;;5101794;28;20465;-81
2022/01/05 12:39:48;;;;;;;3.67;2.23;;;4.50;99.90;;;;;;5093137;28;20370;-80
2022/01/05 12:42:33;;;;;;;1.60;1.50;;;4.50;99.90;;;;;;5102448;28;20474;-80
2022/01/05 12:45:52;;;;;;;1.83;1.73;;;4.60;99.90;;;;;;5090112;28;20421;-81
2022/01/05 12:48:58;;;;;;;7.43;1.70;;;4.40;99.90;;;;;;5094554;28;20413;-80
2022/01/05 12:51:48;;;;;;;11.83;2.00;;;4.40;99.90;;;;;;5084069;28;20438;-80
2022/01/05 12:54:42;;;;;;;3.07;2.17;;;4.40;99.90;;;;;;5069692;28;20874;-80
2022/01/05 12:57:27;;;;;;;3.83;1.67;;;4.40;99.90;;;;;;5095273;28;20406;-79
2022/01/05 13:00:12;;;;;;;6.83;3.73;;;4.40;99.90;;;;;;5081613;28;20540;-80
2022/01/05 13:02:56;;;;;;;4.27;2.20;;;4.40;99.90;;;;;;5098250;28;20401;-80
2022/01/05 13:05:43;;;;;;;1.97;1.77;;;4.50;99.90;;;;;;5085771;28;20390;-79
2022/01/05 13:08:31;;;;;;;3.10;1.50;;;4.60;99.90;;;;;;5078620;28;20421;-80
2022/01/05 13:11:33;;;;;;;4.27;1.93;;;4.50;99.90;;;;;;5097491;28;20425;-79
2022/01/05 13:14:45;;;;;;;10.07;2.37;;;4.60;99.90;;;;;;5105034;27;20743;-80
2022/01/05 13:17:39;;;;;;;1.90;1.80;;;4.70;99.90;;;;;;5018571;28;20404;-79
2022/01/05 13:20:23;;;;;;;8.00;2.10;;;4.70;99.90;;;;;;5033510;28;20539;-80
2022/01/05 13:23:08;;;;;;;1.30;1.20;;;4.70;99.90;;;;;;5033554;28;20522;-80
2022/01/05 13:25:52;;;;;;;3.57;2.80;;;4.60;99.90;;;;;;5005789;28;20797;-79
2022/01/05 13:28:38;;;;;;;4.30;1.90;;;4.60;99.90;;;;;;5032429;28;20406;-80
2022/01/05 13:31:22;;;;;;;3.10;2.33;;;4.60;99.90;;;;;;5018098;28;20508;-80
2022/01/05 13:34:07;;;;;;;3.00;1.90;;;4.70;99.90;;;;;;5035809;28;20413;-80
2022/01/05 13:36:52;;;;;;;1.70;1.60;;;4.80;99.90;;;;;;5047349;28;20893;-80
2022/01/05 13:39:45;;;;;;;1.60;1.50;;;4.30;99.90;;;;;;5048196;28;20433;-79
2022/01/05 13:42:35;;;;;;;2.97;1.30;;;4.50;99.90;;;;;;5039429;28;20418;-81
2022/01/05 13:45:24;;;;;;;3.00;1.77;;;4.60;99.90;;;;;;5033624;28;20449;-81
2022/01/05 13:48:11;;;;;;;2.70;1.63;;;4.70;99.90;;;;;;5067280;28;20491;-81
2022/01/05 13:50:59;;;;;;;3.70;2.00;;;4.60;99.90;;;;;;5100497;28;20471;-81
2022/01/05 13:53:44;;;;;;;1.80;1.70;;;4.50;99.90;;;;;;5099151;28;20414;-81
2022/01/05 13:56:39;;;;;;;1.43;1.33;;;4.60;99.90;;;;;;5087516;28;20425;-80
2022/01/05 13:59:24;;;;;;;2.63;1.80;;;4.30;99.90;;;;;;5102233;28;20903;-80
2022/01/05 14:02:09;;;;;;;1.50;1.40;;;4.40;99.90;;;;;;5099865;28;20470;-81
2022/01/05 14:04:56;;;;;;;6.40;2.23;;;4.50;99.90;;;;;;5082882;28;20417;-79
2022/01/05 14:07:43;;;;;;;2.13;1.67;;;4.50;99.90;;;;;;5093556;28;20418;-81
2022/01/05 14:10:30;;;;;;;2.03;1.50;;;4.60;99.90;;;;;;5096809;28;20410;-80
2022/01/05 14:13:14;;;;;;;2.07;1.80;;;4.60;99.90;;;;;;5089582;28;20452;-81
2022/01/05 14:16:00;;;;;;;2.07;1.87;;;4.50;99.90;;;;;;5110808;28;20434;-81
2022/01/05 14:18:45;;;;;;;5.43;2.00;;;4.10;99.90;;;;;;5112506;28;20472;-81
2022/01/05 14:21:32;;;;;;;1.63;1.53;;;3.80;99.90;;;;;;5100258;28;20416;-81
2022/01/05 14:24:36;;;;;;;4.10;2.63;;;4.00;99.90;;;;;;5101730;28;20436;-81
2022/01/05 14:27:22;;;;;;;2.67;2.10;;;4.00;99.90;;;;;;5102922;28;20382;-81
2022/01/05 14:30:11;;;;;;;6.30;2.00;;;4.30;99.90;;;;;;5091355;28;20402;-80
2022/01/05 14:32:56;;;;;;;4.70;1.70;;;4.20;99.90;;;;;;5104756;28;20386;-81
2022/01/05 14:35:48;;;;;;;3.63;1.57;;;4.40;99.90;;;;;;5099254;28;20427;-82
2022/01/05 14:38:32;;;;;;;10.13;2.10;;;4.10;99.90;;;;;;5108509;28;20488;-82
2022/01/05 14:41:17;;;;;;;5.77;2.23;;;4.40;99.90;;;;;;5104821;28;20463;-82